Time;durP1;ratioP1;P1;durP2;ratioP2;P2;SDS_P1;SDS_P2;PMS_P1;PMS_P2;Temp;Humidity;BMP_temperature;BMP_pressure;BME280_temperature;BME280_humidity;BME280_pressure;Samples;Min_cycle;Max_cycle;Signal;HPM_P1;HPM_P2
2022/03/09 00:01:37;;;;;;;11.18;5.72;;;;;;;0.97;65.26;102065.69;5043772;28;20111;-72
2022/03/09 00:04:04;;;;;;;12.95;5.97;;;;;;;0.68;65.27;102070.59;5044273;28;20172;-72
2022/03/09 00:06:32;;;;;;;10.35;5.30;;;;;;;0.50;66.00;102075.56;5045640;28;20471;-71
2022/03/09 00:08:59;;;;;;;9.30;4.78;;;;;;;0.39;67.66;102084.91;5039031;28;20073;-72
2022/03/09 00:11:25;;;;;;;11.20;5.57;;;;;;;0.29;66.26;102085.66;5050078;28;20076;-72
2022/03/09 00:13:52;;;;;;;10.02;5.80;;;;;;;0.23;66.39;102090.72;5042247;28;20056;-72
2022/03/09 00:16:18;;;;;;;20.30;5.50;;;;;;;0.39;66.01;102087.47;5050824;28;20077;-72
2022/03/09 00:18:45;;;;;;;8.93;4.55;;;;;;;0.52;66.15;102084.16;5041822;28;20562;-72
2022/03/09 00:21:11;;;;;;;11.68;5.22;;;;;;;0.63;66.40;102085.16;5050668;28;20106;-72
2022/03/09 00:23:39;;;;;;;13.98;5.57;;;;;;;1.06;65.78;102080.41;5050710;28;20068;-72
2022/03/09 00:26:05;;;;;;;11.25;5.15;;;;;;;0.47;66.76;102081.56;5050584;28;20429;-72
2022/03/09 00:28:32;;;;;;;12.60;5.35;;;;;;;0.33;68.82;102088.25;5049421;28;20071;-72
2022/03/09 00:30:58;;;;;;;9.13;5.15;;;;;;;0.67;67.67;102089.50;5049772;28;20085;-72
2022/03/09 00:33:24;;;;;;;10.30;4.97;;;;;;;0.78;67.16;102072.41;5049627;28;20060;-72
2022/03/09 00:35:51;;;;;;;12.75;5.18;;;;;;;1.28;65.43;102074.56;5042615;28;20150;-72
2022/03/09 00:38:17;;;;;;;11.63;4.72;;;;;;;1.27;65.30;102083.16;5050353;28;20126;-72
2022/03/09 00:40:47;;;;;;;13.13;4.95;;;;;;;1.16;65.40;102080.47;5041690;28;20102;-72
2022/03/09 00:43:14;;;;;;;7.95;4.30;;;;;;;0.68;66.77;102080.03;5049942;28;20530;-72
2022/03/09 00:45:41;;;;;;;9.15;4.82;;;;;;;0.64;67.28;102081.72;5050219;28;20527;-72
2022/03/09 00:48:07;;;;;;;11.65;5.03;;;;;;;0.88;65.90;102071.66;5048083;28;20489;-72
2022/03/09 00:50:34;;;;;;;12.57;5.03;;;;;;;0.67;65.93;102074.00;5049466;28;20474;-72
2022/03/09 00:53:00;;;;;;;12.45;4.68;;;;;;;0.73;65.67;102074.09;5049813;28;20126;-72
2022/03/09 00:55:26;;;;;;;10.85;5.05;;;;;;;0.80;65.02;102075.00;5050577;28;20125;-72
2022/03/09 00:57:54;;;;;;;14.25;5.00;;;;;;;0.32;67.25;102073.66;5050671;28;21290;-71
2022/03/09 01:00:21;;;;;;;14.43;4.72;;;;;;;0.30;67.59;102071.88;5048723;28;20099;-72
2022/03/09 01:02:47;;;;;;;8.85;5.15;;;;;;;0.39;66.27;102066.84;5050000;28;20121;-72
2022/03/09 01:05:15;;;;;;;12.68;4.78;;;;;;;0.22;66.38;102074.38;5050159;28;20602;-72
2022/03/09 01:07:42;;;;;;;11.10;4.85;;;;;;;0.17;66.34;102068.31;5050249;28;20052;-72
2022/03/09 01:10:09;;;;;;;14.15;4.72;;;;;;;-0.20;68.09;102072.13;5048783;28;20155;-71
2022/03/09 01:12:36;;;;;;;9.63;4.72;;;;;;;-0.50;69.86;102074.28;5049060;28;20126;-71
2022/03/09 01:15:05;;;;;;;9.70;4.85;;;;;;;-0.70;71.25;102070.56;5049331;28;20126;-71
2022/03/09 01:17:31;;;;;;;11.35;4.80;;;;;;;-0.14;69.32;102069.63;5046365;28;20080;-71
2022/03/09 01:19:58;;;;;;;13.38;5.70;;;;;;;-0.06;68.28;102067.16;5048274;28;20502;-71
2022/03/09 01:22:24;;;;;;;13.43;4.75;;;;;;;0.11;67.32;102064.81;5050195;28;20511;-73
2022/03/09 01:24:51;;;;;;;9.57;4.72;;;;;;;0.29;66.46;102060.72;5049771;28;20117;-73
2022/03/09 01:27:17;;;;;;;7.32;4.28;;;;;;;-0.19;66.93;102061.00;5049450;28;20123;-71
2022/03/09 01:29:43;;;;;;;10.73;4.82;;;;;;;-0.03;67.98;102067.19;5048639;28;20056;-73
2022/03/09 01:32:11;;;;;;;12.43;5.05;;;;;;;0.10;67.75;102063.94;5048293;28;20068;-71
2022/03/09 01:34:37;;;;;;;9.10;4.53;;;;;;;0.21;66.92;102064.06;5049472;28;20512;-72
2022/03/09 01:37:04;;;;;;;8.45;4.00;;;;;;;-0.29;68.22;102069.41;5046147;28;20068;-71
2022/03/09 01:39:31;;;;;;;9.68;4.72;;;;;;;0.00;67.45;102075.81;5048547;28;20141;-71
2022/03/09 01:41:57;;;;;;;7.05;3.63;;;;;;;0.07;66.94;102070.75;5048455;28;20489;-71
2022/03/09 01:44:25;;;;;;;11.23;4.60;;;;;;;-0.08;67.46;102072.31;5049205;28;20118;-71
2022/03/09 01:46:53;;;;;;;10.40;4.20;;;;;;;-0.23;67.28;102066.94;5049388;28;20077;-71
2022/03/09 01:49:22;;;;;;;8.73;4.28;;;;;;;-0.12;65.98;102067.97;5040487;28;20128;-72
2022/03/09 01:51:52;;;;;;;6.57;3.78;;;;;;;0.03;65.33;102071.56;5034362;28;20121;-72
2022/03/09 01:54:18;;;;;;;7.15;3.38;;;;;;;0.13;65.10;102070.81;5048847;28;20084;-72
2022/03/09 01:56:46;;;;;;;8.95;3.83;;;;;;;0.18;64.74;102066.59;5044085;28;20052;-72
2022/03/09 01:59:14;;;;;;;10.27;4.43;;;;;;;-0.03;65.70;102074.91;5048573;28;20080;-72
2022/03/09 02:01:41;;;;;;;11.70;4.05;;;;;;;0.05;65.67;102075.88;5032623;28;20131;-72
2022/03/09 02:04:08;;;;;;;10.30;4.53;;;;;;;0.10;66.15;102075.94;5044217;28;20527;-73
2022/03/09 02:06:37;;;;;;;7.93;3.75;;;;;;;0.20;64.68;102075.22;5048018;28;20130;-72
2022/03/09 02:11:49;;;;;;;9.02;3.88;;;;;;;0.06;66.39;102076.75;5037348;28;20465;-73
2022/03/09 02:14:33;;;;;;;8.55;4.15;;;;;;;-0.07;66.64;102071.44;5047933;28;20459;-72
2022/03/09 02:17:01;;;;;;;10.95;4.55;;;;;;;-0.13;66.14;102084.25;5036673;28;20451;-72
2022/03/09 02:19:28;;;;;;;11.77;4.78;;;;;;;-0.01;65.42;102078.41;5047758;28;20069;-72
2022/03/09 02:22:03;;;;;;;11.15;4.88;;;;;;;-0.07;65.24;102086.03;5048274;28;20130;-72
2022/03/09 02:24:32;;;;;;;9.75;4.40;;;;;;;0.07;64.76;102088.81;5041362;28;20074;-72
2022/03/09 02:26:59;;;;;;;8.82;4.57;;;;;;;0.32;64.14;102080.53;5048718;28;20056;-71
2022/03/09 02:29:25;;;;;;;9.55;4.55;;;;;;;0.37;64.80;102082.28;5048258;28;20072;-72
2022/03/09 02:31:51;;;;;;;14.57;4.70;;;;;;;0.03;66.79;102087.03;5039187;28;20048;-72
2022/03/09 02:34:18;;;;;;;16.05;4.50;;;;;;;-0.01;67.40;102087.00;5047711;28;20069;-72
2022/03/09 02:36:44;;;;;;;10.27;4.78;;;;;;;-0.25;67.14;102089.25;5048793;28;20056;-72
2022/03/09 02:39:11;;;;;;;10.43;4.80;;;;;;;-0.26;66.59;102084.94;5048498;28;20081;-73
2022/03/09 02:41:38;;;;;;;8.68;4.63;;;;;;;-0.18;65.28;102080.75;5047931;28;20088;-72
2022/03/09 02:44:06;;;;;;;7.45;4.10;;;;;;;-0.30;65.60;102072.00;5047510;28;20134;-72
2022/03/09 02:46:32;;;;;;;10.68;4.88;;;;;;;-0.34;66.06;102071.09;5046435;28;20076;-72
2022/03/09 02:48:58;;;;;;;9.95;4.53;;;;;;;-0.91;68.07;102060.75;5046222;28;20138;-72
2022/03/09 02:51:25;;;;;;;9.15;4.55;;;;;;;-1.15;70.24;102057.81;5045836;28;20052;-72
2022/03/09 02:53:51;;;;;;;14.63;5.53;;;;;;;-1.42;72.10;102060.75;5048105;28;20048;-72
2022/03/09 02:56:17;;;;;;;13.68;4.60;;;;;;;-1.22;72.41;102056.81;5047981;28;20134;-72
2022/03/09 02:58:46;;;;;;;10.05;4.82;;;;;;;-0.67;70.05;102060.28;5046424;28;20076;-72
2022/03/09 03:01:13;;;;;;;10.20;4.38;;;;;;;-0.45;68.41;102062.34;5047130;28;20818;-72
2022/03/09 03:03:40;;;;;;;8.13;4.43;;;;;;;-0.62;68.12;102063.78;5046455;28;20076;-72
2022/03/09 03:06:06;;;;;;;11.65;4.50;;;;;;;-0.52;67.66;102063.09;5046578;28;20049;-72
2022/03/09 03:08:33;;;;;;;7.32;4.22;;;;;;;-0.73;66.98;102066.22;5047500;28;20049;-72
2022/03/09 03:11:00;;;;;;;10.93;4.68;;;;;;;-0.78;66.92;102062.72;5046277;28;20099;-72
2022/03/09 03:13:26;;;;;;;10.93;4.47;;;;;;;-0.80;67.99;102064.38;5045644;28;20090;-72
2022/03/09 03:15:54;;;;;;;9.23;4.40;;;;;;;-0.85;68.49;102066.00;5037871;28;20114;-72
2022/03/09 03:18:20;;;;;;;10.65;4.78;;;;;;;-0.73;68.57;102063.63;5039213;28;20745;-72
2022/03/09 03:20:46;;;;;;;9.35;4.28;;;;;;;-0.63;68.10;102072.38;5042528;28;20076;-72
2022/03/09 03:23:13;;;;;;;10.25;4.45;;;;;;;-1.00;67.88;102076.91;5045304;28;20141;-71
2022/03/09 03:25:39;;;;;;;9.15;4.30;;;;;;;-1.11;67.86;102073.31;5046373;28;20122;-72
2022/03/09 03:28:06;;;;;;;11.20;4.20;;;;;;;-0.89;67.49;102068.53;5044725;28;20081;-72
2022/03/09 03:30:32;;;;;;;12.27;4.80;;;;;;;-1.57;70.95;102081.03;5046061;28;20076;-72
2022/03/09 03:33:00;;;;;;;13.00;5.15;;;;;;;-1.42;72.32;102073.63;5045787;28;20048;-72
2022/03/09 03:35:26;;;;;;;11.55;4.35;;;;;;;-1.31;71.98;102077.25;5030121;28;20503;-72
2022/03/09 03:37:52;;;;;;;12.63;4.97;;;;;;;-1.13;70.76;102075.00;5032147;28;20049;-72
2022/03/09 03:40:19;;;;;;;7.43;4.10;;;;;;;-1.15;67.58;102075.81;5045832;28;20801;-72
2022/03/09 03:42:45;;;;;;;9.95;4.82;;;;;;;-1.37;67.81;102087.44;5049624;28;20103;-72
2022/03/09 03:45:11;;;;;;;9.38;4.32;;;;;;;-1.10;67.59;102090.47;5051026;28;20072;-72
2022/03/09 03:47:38;;;;;;;9.80;4.43;;;;;;;-0.81;66.88;102097.84;5050882;28;20076;-72
2022/03/09 03:50:07;;;;;;;12.60;4.75;;;;;;;-0.75;66.91;102096.22;5049927;28;20505;-72
2022/03/09 03:52:33;;;;;;;15.82;4.65;;;;;;;-0.55;66.64;102086.22;5049985;28;20057;-71
2022/03/09 03:54:59;;;;;;;8.43;4.13;;;;;;;-0.73;67.49;102091.09;5048376;28;20064;-71
2022/03/09 03:57:26;;;;;;;10.25;4.75;;;;;;;-0.86;67.65;102095.19;5052821;28;20057;-71
2022/03/09 03:59:52;;;;;;;14.18;4.80;;;;;;;-0.75;67.55;102106.53;5048895;28;20067;-72
2022/03/09 04:02:18;;;;;;;9.93;4.82;;;;;;;-0.55;67.01;102102.53;5050161;28;20092;-72
2022/03/09 04:04:45;;;;;;;10.23;4.68;;;;;;;-0.72;67.70;102100.56;5050260;28;20088;-72
2022/03/09 04:07:13;;;;;;;10.15;5.30;;;;;;;-1.19;69.25;102098.06;5048551;28;20060;-71
2022/03/09 04:09:39;;;;;;;9.45;4.38;;;;;;;-1.10;69.26;102105.94;5047354;28;20082;-71
2022/03/09 04:12:06;;;;;;;12.48;4.72;;;;;;;-0.91;68.87;102101.97;5051079;28;20127;-71
2022/03/09 04:14:32;;;;;;;12.10;4.22;;;;;;;-0.94;68.09;102099.34;5050001;28;20078;-71
2022/03/09 04:16:58;;;;;;;12.13;5.38;;;;;;;-0.85;67.17;102093.50;5049610;28;20060;-71
2022/03/09 04:19:25;;;;;;;10.63;4.72;;;;;;;-0.60;66.60;102096.47;5047845;28;20064;-71
2022/03/09 04:21:51;;;;;;;8.20;3.95;;;;;;;-0.45;66.23;102103.56;5048775;28;21873;-71
2022/03/09 04:24:19;;;;;;;10.27;4.65;;;;;;;-0.60;67.25;102106.78;5049281;28;20149;-71
2022/03/09 04:26:45;;;;;;;8.52;4.43;;;;;;;-0.69;68.16;102101.47;5050372;28;20048;-73
2022/03/09 04:29:12;;;;;;;8.80;4.20;;;;;;;-0.87;68.49;102106.31;5049137;28;20134;-71
2022/03/09 04:31:38;;;;;;;9.55;4.30;;;;;;;-0.82;67.96;102116.72;5049845;28;20072;-71
2022/03/09 04:34:05;;;;;;;8.63;4.32;;;;;;;-1.04;67.26;102105.19;5049442;28;20056;-71
2022/03/09 04:36:31;;;;;;;12.40;5.05;;;;;;;-0.98;66.92;102100.13;5050199;28;20076;-71
2022/03/09 04:38:58;;;;;;;11.25;4.70;;;;;;;-0.83;66.76;102099.53;5048863;28;20056;-71
2022/03/09 04:41:25;;;;;;;9.52;4.45;;;;;;;-0.99;67.17;102091.53;5050431;28;20055;-71
2022/03/09 04:43:52;;;;;;;12.15;4.55;;;;;;;-1.09;66.73;102097.38;5040379;28;20135;-71
2022/03/09 04:46:19;;;;;;;10.80;4.47;;;;;;;-1.28;67.85;102085.00;5050255;28;21787;-71
2022/03/09 04:48:45;;;;;;;9.55;4.30;;;;;;;-1.66;69.44;102097.16;5049291;28;20060;-71
2022/03/09 04:51:11;;;;;;;11.70;4.35;;;;;;;-1.56;69.09;102093.06;5047267;28;20052;-71
2022/03/09 04:53:38;;;;;;;10.30;4.45;;;;;;;-1.59;68.60;102099.00;5033104;28;20470;-71
2022/03/09 04:56:04;;;;;;;8.73;3.95;;;;;;;-1.94;68.80;102091.44;5046850;28;20126;-71
2022/03/09 04:58:32;;;;;;;12.75;4.70;;;;;;;-1.89;69.81;102100.13;5049448;28;20163;-71
2022/03/09 05:00:59;;;;;;;7.50;3.60;;;;;;;-1.73;68.19;102097.00;5049051;28;20076;-71
2022/03/09 05:03:25;;;;;;;8.05;4.43;;;;;;;-1.71;67.57;102092.78;5050534;28;20108;-71
2022/03/09 05:05:51;;;;;;;9.73;4.53;;;;;;;-2.14;69.87;102091.88;5049130;28;20463;-71
2022/03/09 05:08:18;;;;;;;9.68;4.20;;;;;;;-2.12;70.43;102095.38;5049249;28;20057;-71
2022/03/09 05:10:45;;;;;;;10.82;5.10;;;;;;;-2.05;72.54;102097.22;5048362;28;20094;-71
2022/03/09 05:13:11;;;;;;;9.35;4.70;;;;;;;-1.67;71.65;102097.16;5048725;28;20143;-71
2022/03/09 05:15:39;;;;;;;14.38;4.35;;;;;;;-1.55;70.01;102105.94;5048766;28;20076;-72
2022/03/09 05:18:05;;;;;;;7.93;3.95;;;;;;;-1.67;68.24;102105.72;5047100;28;20076;-72
2022/03/09 05:20:32;;;;;;;7.93;4.00;;;;;;;-1.56;68.69;102113.66;5048591;28;20052;-72
2022/03/09 05:22:58;;;;;;;10.63;4.63;;;;;;;-1.64;68.80;102110.06;5046371;28;20069;-73
2022/03/09 05:25:24;;;;;;;6.82;3.95;;;;;;;-1.48;66.97;102112.09;5037560;28;20157;-72
2022/03/09 05:27:51;;;;;;;12.20;3.97;;;;;;;-1.24;66.68;102099.69;5049299;28;20068;-73
2022/03/09 05:30:17;;;;;;;13.15;4.18;;;;;;;-0.93;65.72;102098.50;5047655;28;20122;-73
2022/03/09 05:32:45;;;;;;;9.63;4.30;;;;;;;-1.28;66.97;102104.72;5048936;28;20153;-72
2022/03/09 05:35:11;;;;;;;11.55;4.75;;;;;;;-1.45;68.00;102112.16;5049064;28;20332;-71
2022/03/09 05:37:38;;;;;;;8.73;4.53;;;;;;;-1.15;67.03;102115.28;5049269;28;20225;-71
2022/03/09 05:40:06;;;;;;;10.23;4.80;;;;;;;-1.18;67.47;102116.91;5048446;28;20053;-71
2022/03/09 05:42:33;;;;;;;9.90;4.97;;;;;;;-1.28;68.07;102123.63;5048275;28;21394;-71
2022/03/09 05:44:59;;;;;;;9.88;4.53;;;;;;;-1.31;68.11;102120.13;5048863;28;20493;-71
2022/03/09 05:47:26;;;;;;;7.03;4.05;;;;;;;-1.67;68.49;102133.16;5047129;28;21417;-72
2022/03/09 05:49:53;;;;;;;10.98;4.40;;;;;;;-1.60;67.72;102132.44;5047220;28;20053;-72
2022/03/09 05:52:20;;;;;;;9.07;4.15;;;;;;;-1.97;67.77;102139.38;5047775;28;20072;-72
2022/03/09 05:54:46;;;;;;;8.07;4.30;;;;;;;-2.13;70.03;102139.00;5042556;28;20080;-72
2022/03/09 05:57:12;;;;;;;11.07;4.28;;;;;;;-1.58;68.38;102151.31;5039046;28;20079;-72
2022/03/09 05:59:39;;;;;;;13.57;3.90;;;;;;;-1.31;67.36;102144.16;5048100;28;20076;-72
2022/03/09 06:02:05;;;;;;;9.05;5.03;;;;;;;-1.75;68.15;102147.53;5047888;28;20133;-72
2022/03/09 06:04:32;;;;;;;8.73;4.50;;;;;;;-2.07;69.28;102147.72;5047452;28;20052;-72
2022/03/09 06:07:01;;;;;;;11.48;5.10;;;;;;;-1.86;69.48;102143.88;5032119;28;20461;-72
2022/03/09 06:09:28;;;;;;;8.57;4.28;;;;;;;-1.94;69.91;102147.97;5039671;28;20052;-72
2022/03/09 06:11:54;;;;;;;11.82;5.13;;;;;;;-2.21;71.60;102149.09;5039867;28;20069;-72
2022/03/09 06:14:21;;;;;;;9.68;4.90;;;;;;;-1.83;71.26;102154.22;5047175;28;20076;-72
2022/03/09 06:16:47;;;;;;;17.52;4.90;;;;;;;-1.51;70.09;102150.59;5049077;28;20076;-73
2022/03/09 06:19:14;;;;;;;8.93;4.50;;;;;;;-1.65;71.36;102152.03;5046687;28;20068;-73
2022/03/09 06:21:40;;;;;;;10.82;4.40;;;;;;;-1.44;70.93;102146.47;5047690;28;20081;-73
2022/03/09 06:24:08;;;;;;;9.88;4.60;;;;;;;-1.11;71.26;102155.66;5046409;28;21380;-73
2022/03/09 06:26:36;;;;;;;11.73;5.55;;;;;;;-0.60;70.81;102147.13;5047807;28;20053;-73
2022/03/09 06:29:03;;;;;;;8.45;4.85;;;;;;;-0.05;68.68;102156.56;5046798;28;20053;-73
2022/03/09 06:31:29;;;;;;;11.80;5.03;;;;;;;0.28;67.17;102158.72;5048270;28;20129;-73
2022/03/09 06:33:56;;;;;;;8.70;4.65;;;;;;;0.78;65.47;102160.19;5044046;28;20056;-72
2022/03/09 06:36:22;;;;;;;9.82;5.35;;;;;;;1.05;64.18;102153.56;5047438;28;20076;-72
2022/03/09 06:38:48;;;;;;;12.30;5.63;;;;;;;2.33;61.79;102158.78;5046716;28;20053;-72
2022/03/09 06:41:16;;;;;;;10.63;5.55;;;;;;;2.28;62.63;102158.78;5046872;28;20110;-72
2022/03/09 06:43:42;;;;;;;11.05;5.35;;;;;;;2.70;61.72;102159.78;5044165;28;20088;-71
2022/03/09 06:46:09;;;;;;;11.18;5.45;;;;;;;2.86;60.60;102143.44;5047636;28;20571;-72
2022/03/09 06:48:35;;;;;;;10.68;5.50;;;;;;;2.46;61.46;102160.59;5047907;28;20481;-72
2022/03/09 06:51:01;;;;;;;10.95;5.88;;;;;;;2.94;61.96;102152.09;5046784;28;20091;-72
2022/03/09 06:53:28;;;;;;;11.23;5.30;;;;;;;3.98;59.35;102158.16;5046975;28;20178;-72
2022/03/09 06:55:54;;;;;;;14.25;5.60;;;;;;;4.07;59.21;102161.59;5037665;28;20143;-72
2022/03/09 06:58:23;;;;;;;9.02;5.35;;;;;;;3.99;59.76;102154.69;5047308;28;20072;-72
2022/03/09 07:00:50;;;;;;;8.65;5.30;;;;;;;4.02;60.17;102157.28;5046457;28;20052;-72
2022/03/09 07:03:16;;;;;;;10.95;5.55;;;;;;;4.19;60.27;102158.97;5047461;28;20080;-73
2022/03/09 07:05:43;;;;;;;11.05;5.95;;;;;;;4.58;59.37;102163.13;5047892;28;20077;-72
2022/03/09 07:08:09;;;;;;;9.68;5.50;;;;;;;4.94;59.44;102158.63;5047515;28;20091;-71
2022/03/09 07:10:35;;;;;;;10.52;6.13;;;;;;;4.87;58.54;102166.47;5047311;28;20137;-71
2022/03/09 07:13:02;;;;;;;13.55;6.30;;;;;;;5.59;57.57;102163.34;5046658;28;20076;-71
2022/03/09 07:15:30;;;;;;;12.60;6.00;;;;;;;6.72;53.75;102158.69;5044761;28;20052;-72
2022/03/09 07:17:56;;;;;;;11.52;5.95;;;;;;;7.17;49.97;102150.19;5035477;28;20081;-72
2022/03/09 07:20:23;;;;;;;12.23;6.25;;;;;;;6.20;52.66;102158.44;5030237;28;20118;-72
2022/03/09 07:22:49;;;;;;;11.45;5.93;;;;;;;5.84;54.53;102160.50;5044189;28;20488;-72
2022/03/09 07:25:15;;;;;;;12.20;5.85;;;;;;;6.08;53.64;102169.84;5047949;28;20706;-73
2022/03/09 07:27:42;;;;;;;10.93;6.30;;;;;;;5.50;53.99;102166.03;5061856;28;20086;-73
2022/03/09 07:30:11;;;;;;;12.23;6.78;;;;;;;5.70;55.71;102158.91;5058148;28;20037;-73
2022/03/09 07:32:39;;;;;;;11.13;6.00;;;;;;;5.79;53.33;102157.09;5066318;28;20049;-73
2022/03/09 07:35:06;;;;;;;11.55;7.20;;;;;;;6.62;53.10;102162.25;5067438;28;20037;-74
2022/03/09 07:37:33;;;;;;;11.90;7.15;;;;;;;7.32;50.25;102164.72;5066106;28;20045;-74
2022/03/09 07:39:59;;;;;;;12.05;7.07;;;;;;;6.49;51.00;102164.19;5058979;28;20091;-74
2022/03/09 07:42:26;;;;;;;13.13;7.20;;;;;;;5.80;53.54;102161.41;5046968;28;20041;-73
2022/03/09 07:44:52;;;;;;;12.40;7.03;;;;;;;5.53;54.32;102164.28;5059046;28;20157;-73
2022/03/09 07:47:20;;;;;;;15.90;7.25;;;;;;;5.54;56.46;102165.16;5057750;28;20098;-73
2022/03/09 07:49:47;;;;;;;18.10;7.85;;;;;;;6.82;52.27;102174.16;5066528;28;20454;-73
2022/03/09 07:52:14;;;;;;;12.43;6.95;;;;;;;8.66;49.03;102160.53;5065461;28;20489;-73
2022/03/09 07:54:40;;;;;;;12.63;7.15;;;;;;;9.21;46.46;102154.94;5049139;28;20091;-73
2022/03/09 07:57:06;;;;;;;11.50;6.90;;;;;;;9.30;46.59;102157.34;5050927;28;20068;-73
2022/03/09 07:59:33;;;;;;;13.13;7.60;;;;;;;9.08;45.04;102153.50;5043703;28;20053;-73
2022/03/09 08:02:00;;;;;;;15.82;7.88;;;;;;;9.55;45.52;102155.84;5058053;28;20114;-73
2022/03/09 08:04:26;;;;;;;11.48;7.45;;;;;;;9.25;45.69;102157.44;5048092;28;20037;-73
2022/03/09 08:06:55;;;;;;;12.57;7.35;;;;;;;9.77;45.55;102153.53;5060115;28;20041;-73
2022/03/09 08:09:21;;;;;;;14.27;7.53;;;;;;;10.50;42.97;102149.78;5047205;28;20057;-73
2022/03/09 08:11:48;;;;;;;12.52;7.55;;;;;;;10.95;42.05;102147.56;5047260;28;20068;-73
2022/03/09 08:14:15;;;;;;;13.57;7.50;;;;;;;10.66;41.72;102153.69;5061467;28;20048;-73
2022/03/09 08:16:41;;;;;;;12.10;8.13;;;;;;;10.61;43.62;102150.34;5035386;28;20041;-73
2022/03/09 08:19:08;;;;;;;10.65;7.30;;;;;;;9.93;45.48;102157.50;5046944;28;20056;-73
2022/03/09 08:21:34;;;;;;;11.18;8.00;;;;;;;10.06;44.61;102158.00;5047334;28;20041;-74
2022/03/09 08:24:02;;;;;;;12.85;8.25;;;;;;;10.14;45.77;102166.53;5048509;28;20060;-73
2022/03/09 08:26:28;;;;;;;15.00;8.52;;;;;;;10.55;44.19;102166.25;5043557;28;20551;-73
2022/03/09 08:28:55;;;;;;;14.30;7.78;;;;;;;10.92;43.71;102149.41;5051870;28;20044;-73
2022/03/09 08:31:21;;;;;;;17.55;8.98;;;;;;;11.38;43.45;102162.78;5069817;28;20057;-73
2022/03/09 08:33:48;;;;;;;12.75;8.13;;;;;;;11.05;44.26;102148.97;5062115;28;20094;-73
2022/03/09 08:36:14;;;;;;;12.63;8.85;;;;;;;10.88;44.61;102153.03;5058232;28;20413;-73
2022/03/09 08:38:40;;;;;;;13.73;8.68;;;;;;;10.85;43.02;102158.38;5071118;28;20066;-73
2022/03/09 08:41:08;;;;;;;11.90;7.78;;;;;;;10.91;42.60;102153.81;5065199;28;20052;-73
2022/03/09 08:43:34;;;;;;;14.60;9.05;;;;;;;11.17;43.26;102145.13;5058996;28;20401;-73
2022/03/09 08:46:01;;;;;;;12.25;8.30;;;;;;;11.54;42.95;102145.63;5058503;28;20041;-73
2022/03/09 08:48:27;;;;;;;14.05;8.48;;;;;;;12.27;40.20;102150.97;5067331;28;20120;-73
2022/03/09 08:50:54;;;;;;;13.05;8.38;;;;;;;12.98;38.63;102144.78;5060371;28;20049;-73
2022/03/09 08:53:21;;;;;;;13.48;8.80;;;;;;;12.40;42.78;102149.63;5069545;28;20477;-73
2022/03/09 08:55:48;;;;;;;11.45;7.90;;;;;;;13.08;38.06;102146.97;5054257;28;20102;-73
2022/03/09 08:58:16;;;;;;;17.38;8.40;;;;;;;14.06;37.05;102154.34;5057277;28;20048;-74
2022/03/09 09:00:44;;;;;;;12.73;8.48;;;;;;;12.12;38.86;102148.94;5069558;28;20040;-73
2022/03/09 09:03:10;;;;;;;15.63;9.40;;;;;;;12.53;39.30;102155.28;5061961;28;20687;-73
2022/03/09 09:05:37;;;;;;;15.07;9.32;;;;;;;12.35;39.41;102162.09;5059861;28;20493;-72
2022/03/09 09:08:03;;;;;;;15.73;9.15;;;;;;;13.28;38.46;102153.25;5068531;28;20060;-72
2022/03/09 09:10:30;;;;;;;17.08;10.27;;;;;;;14.80;36.06;102153.59;5054016;28;20037;-72
2022/03/09 09:12:57;;;;;;;16.10;10.13;;;;;;;14.84;38.79;102165.75;5049656;28;20067;-72
2022/03/09 09:15:26;;;;;;;14.35;9.23;;;;;;;15.13;36.31;102156.44;5047807;28;20459;-72
2022/03/09 09:17:57;;;;;;;14.85;8.80;;;;;;;14.42;35.49;102163.28;5066893;28;20050;-72
2022/03/09 09:20:25;;;;;;;14.35;8.70;;;;;;;14.16;38.41;102163.53;5054986;28;20045;-72
2022/03/09 09:22:52;;;;;;;13.98;8.65;;;;;;;13.50;39.42;102170.78;5050216;28;20073;-72
2022/03/09 09:25:18;;;;;;;15.32;9.27;;;;;;;13.44;38.74;102162.28;5048580;28;20056;-72
2022/03/09 09:27:45;;;;;;;10.85;8.07;;;;;;;14.28;38.78;102164.78;5048843;28;20076;-73
2022/03/09 09:30:11;;;;;;;13.63;8.43;;;;;;;14.20;36.95;102157.22;5048061;28;21372;-73
2022/03/09 09:32:39;;;;;;;13.93;8.48;;;;;;;14.10;39.19;102169.09;5048507;28;20068;-74
2022/03/09 09:35:06;;;;;;;10.68;7.82;;;;;;;14.01;36.87;102165.06;5048933;28;20125;-70
2022/03/09 09:37:32;;;;;;;13.75;8.30;;;;;;;13.59;37.20;102165.13;5047144;28;20097;-71
2022/03/09 09:39:59;;;;;;;13.60;8.57;;;;;;;13.37;40.74;102160.81;5053684;28;20558;-71
2022/03/09 09:42:30;;;;;;;17.88;8.52;;;;;;;14.63;38.36;102150.91;5056768;28;20052;-71
2022/03/09 09:44:57;;;;;;;12.43;7.97;;;;;;;15.17;37.14;102152.72;5067462;28;20048;-71
2022/03/09 09:47:23;;;;;;;13.98;8.70;;;;;;;15.92;36.90;102148.06;5070667;28;20101;-71
2022/03/09 09:49:52;;;;;;;15.40;8.55;;;;;;;16.55;34.24;102145.59;5057348;28;20491;-71
2022/03/09 09:52:19;;;;;;;13.98;8.85;;;;;;;17.16;32.82;102144.84;5057756;28;20049;-71
2022/03/09 09:54:48;;;;;;;12.20;8.30;;;;;;;15.99;34.85;102153.88;5053021;28;20524;-71
2022/03/09 09:57:16;;;;;;;16.10;9.10;;;;;;;16.28;37.35;102153.22;5037609;28;20111;-71
2022/03/09 09:59:42;;;;;;;13.85;8.65;;;;;;;16.41;34.04;102141.03;5065540;28;20037;-71
2022/03/09 10:02:09;;;;;;;16.02;9.32;;;;;;;15.78;35.47;102155.00;5086029;28;20044;-71
2022/03/09 10:04:36;;;;;;;14.45;8.82;;;;;;;16.11;33.81;102147.97;5068554;28;20052;-71
2022/03/09 10:07:04;;;;;;;13.00;8.88;;;;;;;15.78;32.89;102150.53;5068436;28;20114;-71
2022/03/09 10:09:35;;;;;;;14.35;8.77;;;;;;;16.48;32.89;102142.41;5040591;28;20045;-71
2022/03/09 10:12:03;;;;;;;15.23;9.13;;;;;;;17.44;32.19;102142.34;5062360;28;20042;-71
2022/03/09 10:14:44;;;;;;;14.95;9.13;;;;;;;16.72;32.18;102149.97;5030706;28;20041;-71
2022/03/09 10:17:13;;;;;;;16.95;9.60;;;;;;;16.11;33.86;102144.47;5042705;28;20044;-71
2022/03/09 10:19:44;;;;;;;14.23;9.05;;;;;;;15.99;33.09;102143.31;5043702;28;20099;-71
2022/03/09 10:22:36;;;;;;;14.23;9.48;;;;;;;16.47;33.74;102142.50;5051139;28;20645;-71
2022/03/09 10:25:18;;;;;;;14.27;9.27;;;;;;;16.01;34.89;102141.41;5048099;28;20036;-71
2022/03/09 10:27:46;;;;;;;14.13;8.73;;;;;;;16.99;34.45;102148.47;5064786;28;20044;-71
2022/03/09 10:30:14;;;;;;;14.43;9.02;;;;;;;17.27;32.94;102145.09;5060573;28;20091;-71
2022/03/09 10:32:45;;;;;;;16.27;9.30;;;;;;;16.01;34.36;102152.88;5057820;28;20098;-71
2022/03/09 10:35:12;;;;;;;18.35;9.82;;;;;;;16.22;35.28;102148.22;5063142;28;20067;-71
2022/03/09 10:37:42;;;;;;;14.98;9.13;;;;;;;16.95;35.97;102149.56;5058538;28;20090;-71
2022/03/09 10:40:10;;;;;;;14.88;9.65;;;;;;;17.25;32.83;102139.91;5056241;28;20052;-71
2022/03/09 10:42:37;;;;;;;14.95;8.80;;;;;;;17.40;31.23;102141.66;5057475;28;20040;-71
2022/03/09 10:45:07;;;;;;;16.63;9.43;;;;;;;17.12;32.42;102144.16;5068816;28;20106;-71
2022/03/09 10:47:36;;;;;;;15.60;9.25;;;;;;;16.83;33.92;102144.94;5068144;28;20407;-71
2022/03/09 10:50:17;;;;;;;14.32;8.73;;;;;;;17.43;32.97;102135.31;5067594;28;20040;-71
2022/03/09 10:52:48;;;;;;;21.48;8.85;;;;;;;18.17;31.18;102136.16;5042037;28;20033;-71
2022/03/09 10:55:25;;;;;;;18.73;9.45;;;;;;;18.45;32.55;102138.81;5048024;28;20049;-71
2022/03/09 10:57:51;;;;;;;13.35;8.45;;;;;;;18.52;28.56;102138.44;5039991;28;20101;-71
2022/03/09 11:00:36;;;;;;;15.40;9.05;;;;;;;17.53;34.05;102137.34;5047477;28;20094;-71
2022/03/09 11:03:07;;;;;;;19.13;9.77;;;;;;;18.09;31.92;102135.78;5064354;28;20041;-66
2022/03/09 11:05:34;;;;;;;18.50;8.48;;;;;;;18.38;29.38;102134.84;5066626;28;21751;-66
2022/03/09 11:08:02;;;;;;;13.88;8.82;;;;;;;18.72;30.39;102130.09;5057383;28;20040;-66
2022/03/09 11:10:29;;;;;;;13.07;9.40;;;;;;;18.46;32.21;102132.56;5063746;28;20041;-66
2022/03/09 11:12:55;;;;;;;13.15;9.13;;;;;;;17.88;32.67;102134.44;5067309;28;20063;-66
2022/03/09 11:15:23;;;;;;;11.43;8.15;;;;;;;18.08;29.53;102128.75;5068079;28;20040;-66
2022/03/09 11:17:49;;;;;;;12.25;8.35;;;;;;;17.69;31.13;102128.50;5038468;28;20036;-66
2022/03/09 11:20:16;;;;;;;13.50;8.75;;;;;;;17.74;33.10;102126.41;5055028;28;20056;-66
2022/03/09 11:22:43;;;;;;;12.80;8.75;;;;;;;17.79;30.58;102130.53;5067922;28;20048;-66
2022/03/09 11:25:11;;;;;;;11.48;7.93;;;;;;;17.96;30.58;102126.84;5068402;28;20463;-66